sensor_id;sensor_type;location;lat;lon;timestamp;P1;durP1;ratioP1;P2;durP2;ratioP2
70247;SDS011;57641;51.416;5.506;2022-11-15T00:00:33;30.88;;;14.02;;
70247;SDS011;57641;51.416;5.506;2022-11-15T00:02:59;24.83;;;13.00;;
70247;SDS011;57641;51.416;5.506;2022-11-15T00:05:24;24.83;;;12.48;;
70247;SDS011;57641;51.416;5.506;2022-11-15T00:07:50;24.30;;;12.25;;
70247;SDS011;57641;51.416;5.506;2022-11-15T00:10:15;22.52;;;12.02;;
70247;SDS011;57641;51.416;5.506;2022-11-15T00:12:41;24.48;;;12.60;;
70247;SDS011;57641;51.416;5.506;2022-11-15T00:15:06;24.25;;;11.88;;
70247;SDS011;57641;51.416;5.506;2022-11-15T00:17:32;24.13;;;12.57;;
70247;SDS011;57641;51.416;5.506;2022-11-15T00:19:58;22.67;;;12.90;;
70247;SDS011;57641;51.416;5.506;2022-11-15T00:22:23;26.63;;;13.20;;
70247;SDS011;57641;51.416;5.506;2022-11-15T00:24:48;24.27;;;12.15;;
70247;SDS011;57641;51.416;5.506;2022-11-15T00:27:14;23.83;;;12.32;;
70247;SDS011;57641;51.416;5.506;2022-11-15T00:29:39;19.90;;;10.88;;
70247;SDS011;57641;51.416;5.506;2022-11-15T00:32:11;26.08;;;12.90;;
70247;SDS011;57641;51.416;5.506;2022-11-15T00:34:37;21.20;;;11.05;;
70247;SDS011;57641;51.416;5.506;2022-11-15T00:37:02;26.08;;;13.77;;
70247;SDS011;57641;51.416;5.506;2022-11-15T00:39:28;21.70;;;11.85;;
70247;SDS011;57641;51.416;5.506;2022-11-15T00:41:57;24.83;;;11.95;;
70247;SDS011;57641;51.416;5.506;2022-11-15T00:44:22;23.02;;;12.18;;
70247;SDS011;57641;51.416;5.506;2022-11-15T00:46:47;23.65;;;12.00;;
70247;SDS011;57641;51.416;5.506;2022-11-15T00:49:13;24.58;;;12.63;;
70247;SDS011;57641;51.416;5.506;2022-11-15T00:51:38;26.85;;;14.88;;
70247;SDS011;57641;51.416;5.506;2022-11-15T00:54:04;25.83;;;12.68;;
70247;SDS011;57641;51.416;5.506;2022-11-15T00:56:29;24.85;;;11.90;;
70247;SDS011;57641;51.416;5.506;2022-11-15T00:58:54;19.95;;;11.05;;
70247;SDS011;57641;51.416;5.506;2022-11-15T01:01:20;23.35;;;13.02;;
70247;SDS011;57641;51.416;5.506;2022-11-15T01:03:45;22.05;;;13.07;;
70247;SDS011;57641;51.416;5.506;2022-11-15T01:06:11;25.02;;;12.55;;
70247;SDS011;57641;51.416;5.506;2022-11-15T01:08:37;24.77;;;12.77;;
70247;SDS011;57641;51.416;5.506;2022-11-15T01:11:05;22.75;;;13.32;;
70247;SDS011;57641;51.416;5.506;2022-11-15T01:13:33;24.17;;;12.15;;
70247;SDS011;57641;51.416;5.506;2022-11-15T01:16:13;21.27;;;12.13;;
70247;SDS011;57641;51.416;5.506;2022-11-15T01:18:42;22.90;;;12.25;;
70247;SDS011;57641;51.416;5.506;2022-11-15T01:21:09;24.45;;;12.63;;
70247;SDS011;57641;51.416;5.506;2022-11-15T01:23:36;24.40;;;12.68;;
70247;SDS011;57641;51.416;5.506;2022-11-15T01:26:03;24.63;;;11.88;;
70247;SDS011;57641;51.416;5.506;2022-11-15T01:28:31;25.73;;;12.80;;
70247;SDS011;57641;51.416;5.506;2022-11-15T01:30:58;26.40;;;13.27;;
70247;SDS011;57641;51.416;5.506;2022-11-15T01:33:28;24.98;;;12.45;;
70247;SDS011;57641;51.416;5.506;2022-11-15T01:35:55;24.35;;;12.65;;
70247;SDS011;57641;51.416;5.506;2022-11-15T01:38:21;25.40;;;12.60;;
70247;SDS011;57641;51.416;5.506;2022-11-15T01:40:47;25.17;;;11.38;;
70247;SDS011;57641;51.416;5.506;2022-11-15T01:45:49;25.73;;;13.00;;
70247;SDS011;57641;51.416;5.506;2022-11-15T01:48:24;26.90;;;12.55;;
70247;SDS011;57641;51.416;5.506;2022-11-15T01:50:53;22.52;;;12.32;;
70247;SDS011;57641;51.416;5.506;2022-11-15T01:53:19;23.85;;;12.57;;
70247;SDS011;57641;51.416;5.506;2022-11-15T01:55:48;23.02;;;12.15;;
70247;SDS011;57641;51.416;5.506;2022-11-15T01:58:14;26.13;;;13.05;;
70247;SDS011;57641;51.416;5.506;2022-11-15T02:00:40;24.52;;;12.32;;
70247;SDS011;57641;51.416;5.506;2022-11-15T02:03:06;24.13;;;13.15;;
70247;SDS011;57641;51.416;5.506;2022-11-15T02:05:31;31.10;;;15.07;;
70247;SDS011;57641;51.416;5.506;2022-11-15T02:07:59;24.27;;;12.50;;
70247;SDS011;57641;51.416;5.506;2022-11-15T02:10:25;21.98;;;11.13;;
70247;SDS011;57641;51.416;5.506;2022-11-15T02:12:50;22.77;;;12.48;;
70247;SDS011;57641;51.416;5.506;2022-11-15T02:15:17;22.55;;;12.48;;
70247;SDS011;57641;51.416;5.506;2022-11-15T02:17:57;30.45;;;14.57;;
70247;SDS011;57641;51.416;5.506;2022-11-15T02:20:39;22.58;;;12.32;;
70247;SDS011;57641;51.416;5.506;2022-11-15T02:34:21;27.35;;;14.00;;
70247;SDS011;57641;51.416;5.506;2022-11-15T02:37:16;23.33;;;12.30;;
70247;SDS011;57641;51.416;5.506;2022-11-15T02:40:17;31.88;;;15.52;;
70247;SDS011;57641;51.416;5.506;2022-11-15T02:42:55;24.35;;;12.65;;
70247;SDS011;57641;51.416;5.506;2022-11-15T02:45:48;23.48;;;12.88;;
70247;SDS011;57641;51.416;5.506;2022-11-15T02:48:16;22.95;;;11.18;;
70247;SDS011;57641;51.416;5.506;2022-11-15T02:50:43;23.23;;;12.25;;
70247;SDS011;57641;51.416;5.506;2022-11-15T02:53:10;21.80;;;11.00;;
70247;SDS011;57641;51.416;5.506;2022-11-15T02:55:37;29.65;;;14.93;;
70247;SDS011;57641;51.416;5.506;2022-11-15T02:58:12;23.05;;;12.68;;
70247;SDS011;57641;51.416;5.506;2022-11-15T03:11:41;23.73;;;12.52;;
70247;SDS011;57641;51.416;5.506;2022-11-15T03:14:19;24.40;;;12.60;;
70247;SDS011;57641;51.416;5.506;2022-11-15T03:19:38;24.55;;;13.02;;
70247;SDS011;57641;51.416;5.506;2022-11-15T03:22:11;25.42;;;12.57;;
70247;SDS011;57641;51.416;5.506;2022-11-15T03:24:43;26.65;;;13.48;;
70247;SDS011;57641;51.416;5.506;2022-11-15T03:27:13;25.90;;;13.65;;
70247;SDS011;57641;51.416;5.506;2022-11-15T03:29:44;22.83;;;13.40;;
70247;SDS011;57641;51.416;5.506;2022-11-15T03:32:15;21.92;;;11.68;;
70247;SDS011;57641;51.416;5.506;2022-11-15T03:37:44;27.10;;;13.30;;
70247;SDS011;57641;51.416;5.506;2022-11-15T03:40:24;23.50;;;12.55;;
70247;SDS011;57641;51.416;5.506;2022-11-15T03:43:16;24.17;;;12.18;;
70247;SDS011;57641;51.416;5.506;2022-11-15T03:45:57;25.45;;;12.23;;
70247;SDS011;57641;51.416;5.506;2022-11-15T03:48:27;24.45;;;12.38;;
70247;SDS011;57641;51.416;5.506;2022-11-15T03:50:58;26.95;;;13.80;;
70247;SDS011;57641;51.416;5.506;2022-11-15T03:53:28;26.15;;;11.60;;
70247;SDS011;57641;51.416;5.506;2022-11-15T03:55:56;26.38;;;12.85;;
70247;SDS011;57641;51.416;5.506;2022-11-15T03:58:25;26.70;;;14.13;;
70247;SDS011;57641;51.416;5.506;2022-11-15T04:00:50;26.63;;;13.27;;
70247;SDS011;57641;51.416;5.506;2022-11-15T04:03:16;28.35;;;14.40;;
70247;SDS011;57641;51.416;5.506;2022-11-15T04:05:41;29.23;;;14.15;;
70247;SDS011;57641;51.416;5.506;2022-11-15T04:08:07;27.63;;;13.13;;
70247;SDS011;57641;51.416;5.506;2022-11-15T04:10:32;22.70;;;12.02;;
70247;SDS011;57641;51.416;5.506;2022-11-15T04:12:57;24.73;;;12.73;;
70247;SDS011;57641;51.416;5.506;2022-11-15T04:15:23;24.85;;;13.45;;
70247;SDS011;57641;51.416;5.506;2022-11-15T04:17:50;24.80;;;13.00;;
70247;SDS011;57641;51.416;5.506;2022-11-15T04:20:21;25.65;;;13.18;;
70247;SDS011;57641;51.416;5.506;2022-11-15T04:25:55;25.17;;;12.93;;
70247;SDS011;57641;51.416;5.506;2022-11-15T04:28:22;24.75;;;12.80;;
70247;SDS011;57641;51.416;5.506;2022-11-15T04:30:47;25.17;;;12.85;;
70247;SDS011;57641;51.416;5.506;2022-11-15T04:33:13;28.98;;;14.15;;
70247;SDS011;57641;51.416;5.506;2022-11-15T04:35:39;30.02;;;14.35;;
70247;SDS011;57641;51.416;5.506;2022-11-15T04:38:08;28.63;;;14.02;;
70247;SDS011;57641;51.416;5.506;2022-11-15T04:40:35;27.95;;;13.43;;
70247;SDS011;57641;51.416;5.506;2022-11-15T04:43:02;24.95;;;14.18;;
70247;SDS011;57641;51.416;5.506;2022-11-15T04:45:28;29.42;;;13.75;;
70247;SDS011;57641;51.416;5.506;2022-11-15T04:47:54;25.90;;;13.35;;
70247;SDS011;57641;51.416;5.506;2022-11-15T04:50:19;25.55;;;13.68;;
70247;SDS011;57641;51.416;5.506;2022-11-15T04:52:52;26.75;;;13.68;;
70247;SDS011;57641;51.416;5.506;2022-11-15T04:55:18;23.95;;;13.38;;
70247;SDS011;57641;51.416;5.506;2022-11-15T04:57:44;25.13;;;13.00;;
70247;SDS011;57641;51.416;5.506;2022-11-15T05:00:14;25.63;;;14.10;;
70247;SDS011;57641;51.416;5.506;2022-11-15T05:02:41;31.20;;;13.75;;
70247;SDS011;57641;51.416;5.506;2022-11-15T05:05:25;28.17;;;13.23;;
70247;SDS011;57641;51.416;5.506;2022-11-15T05:07:50;25.08;;;13.38;;
70247;SDS011;57641;51.416;5.506;2022-11-15T05:10:16;24.75;;;13.40;;
70247;SDS011;57641;51.416;5.506;2022-11-15T05:12:42;22.23;;;12.30;;
70247;SDS011;57641;51.416;5.506;2022-11-15T05:15:08;23.35;;;12.85;;
70247;SDS011;57641;51.416;5.506;2022-11-15T05:17:34;25.80;;;12.73;;
70247;SDS011;57641;51.416;5.506;2022-11-15T05:20:00;23.25;;;11.65;;
70247;SDS011;57641;51.416;5.506;2022-11-15T05:22:25;24.30;;;12.57;;
70247;SDS011;57641;51.416;5.506;2022-11-15T05:24:52;26.92;;;13.07;;
70247;SDS011;57641;51.416;5.506;2022-11-15T05:27:17;22.08;;;11.80;;
70247;SDS011;57641;51.416;5.506;2022-11-15T05:29:43;25.38;;;13.15;;
70247;SDS011;57641;51.416;5.506;2022-11-15T05:32:09;25.38;;;13.18;;
70247;SDS011;57641;51.416;5.506;2022-11-15T05:34:35;23.45;;;12.52;;
70247;SDS011;57641;51.416;5.506;2022-11-15T05:37:00;21.10;;;12.57;;
70247;SDS011;57641;51.416;5.506;2022-11-15T05:39:26;25.02;;;12.73;;
70247;SDS011;57641;51.416;5.506;2022-11-15T05:41:55;19.73;;;11.35;;
70247;SDS011;57641;51.416;5.506;2022-11-15T05:44:28;25.25;;;12.20;;
70247;SDS011;57641;51.416;5.506;2022-11-15T05:46:53;21.65;;;11.52;;
70247;SDS011;57641;51.416;5.506;2022-11-15T05:49:22;21.60;;;11.02;;
70247;SDS011;57641;51.416;5.506;2022-11-15T05:51:50;23.48;;;13.10;;
70247;SDS011;57641;51.416;5.506;2022-11-15T05:54:18;25.08;;;12.00;;
70247;SDS011;57641;51.416;5.506;2022-11-15T05:56:46;22.83;;;11.75;;
70247;SDS011;57641;51.416;5.506;2022-11-15T05:59:12;21.55;;;11.95;;
70247;SDS011;57641;51.416;5.506;2022-11-15T06:01:38;29.33;;;13.73;;
70247;SDS011;57641;51.416;5.506;2022-11-15T06:04:04;25.02;;;12.90;;
70247;SDS011;57641;51.416;5.506;2022-11-15T06:06:30;26.17;;;11.57;;
70247;SDS011;57641;51.416;5.506;2022-11-15T06:08:55;33.45;;;15.20;;
70247;SDS011;57641;51.416;5.506;2022-11-15T06:11:21;35.47;;;16.15;;
70247;SDS011;57641;51.416;5.506;2022-11-15T06:13:46;24.58;;;12.40;;
70247;SDS011;57641;51.416;5.506;2022-11-15T06:16:11;26.92;;;12.70;;
70247;SDS011;57641;51.416;5.506;2022-11-15T06:18:37;36.50;;;15.65;;
70247;SDS011;57641;51.416;5.506;2022-11-15T06:21:03;34.20;;;15.77;;
70247;SDS011;57641;51.416;5.506;2022-11-15T06:23:33;29.23;;;13.70;;
70247;SDS011;57641;51.416;5.506;2022-11-15T06:26:00;28.30;;;13.20;;
70247;SDS011;57641;51.416;5.506;2022-11-15T06:28:30;24.40;;;12.25;;
70247;SDS011;57641;51.416;5.506;2022-11-15T06:31:01;25.40;;;11.90;;
70247;SDS011;57641;51.416;5.506;2022-11-15T06:33:36;18.02;;;10.45;;
70247;SDS011;57641;51.416;5.506;2022-11-15T06:36:04;22.52;;;13.05;;
70247;SDS011;57641;51.416;5.506;2022-11-15T06:38:31;19.90;;;10.82;;
70247;SDS011;57641;51.416;5.506;2022-11-15T06:41:04;23.30;;;12.57;;
70247;SDS011;57641;51.416;5.506;2022-11-15T06:43:31;22.45;;;11.13;;
70247;SDS011;57641;51.416;5.506;2022-11-15T06:45:58;28.35;;;12.10;;
70247;SDS011;57641;51.416;5.506;2022-11-15T06:48:24;35.60;;;14.05;;
70247;SDS011;57641;51.416;5.506;2022-11-15T06:50:51;18.95;;;10.40;;
70247;SDS011;57641;51.416;5.506;2022-11-15T06:53:20;20.90;;;11.85;;
70247;SDS011;57641;51.416;5.506;2022-11-15T06:55:46;22.20;;;10.52;;
70247;SDS011;57641;51.416;5.506;2022-11-15T06:58:11;18.17;;;10.90;;
70247;SDS011;57641;51.416;5.506;2022-11-15T07:00:37;23.95;;;11.07;;
70247;SDS011;57641;51.416;5.506;2022-11-15T07:03:08;26.25;;;11.48;;
70247;SDS011;57641;51.416;5.506;2022-11-15T07:05:38;31.83;;;11.57;;
70247;SDS011;57641;51.416;5.506;2022-11-15T07:08:03;23.45;;;11.10;;
70247;SDS011;57641;51.416;5.506;2022-11-15T07:10:35;29.20;;;11.35;;
70247;SDS011;57641;51.416;5.506;2022-11-15T07:13:00;33.88;;;11.90;;
70247;SDS011;57641;51.416;5.506;2022-11-15T07:15:26;24.58;;;10.30;;
70247;SDS011;57641;51.416;5.506;2022-11-15T07:17:51;34.30;;;12.07;;
70247;SDS011;57641;51.416;5.506;2022-11-15T07:20:17;24.88;;;11.02;;
70247;SDS011;57641;51.416;5.506;2022-11-15T07:22:43;18.73;;;10.50;;
70247;SDS011;57641;51.416;5.506;2022-11-15T07:25:12;19.60;;;10.15;;
70247;SDS011;57641;51.416;5.506;2022-11-15T07:27:38;21.17;;;10.40;;
70247;SDS011;57641;51.416;5.506;2022-11-15T07:30:04;21.08;;;10.57;;
70247;SDS011;57641;51.416;5.506;2022-11-15T07:32:30;19.52;;;9.90;;
70247;SDS011;57641;51.416;5.506;2022-11-15T07:34:55;16.65;;;9.40;;
70247;SDS011;57641;51.416;5.506;2022-11-15T07:37:21;18.85;;;9.27;;
70247;SDS011;57641;51.416;5.506;2022-11-15T07:39:46;18.55;;;9.38;;
70247;SDS011;57641;51.416;5.506;2022-11-15T07:42:12;19.63;;;9.70;;
70247;SDS011;57641;51.416;5.506;2022-11-15T07:44:56;22.55;;;10.05;;
70247;SDS011;57641;51.416;5.506;2022-11-15T07:47:21;17.70;;;9.00;;
70247;SDS011;57641;51.416;5.506;2022-11-15T07:49:46;23.40;;;10.25;;
70247;SDS011;57641;51.416;5.506;2022-11-15T07:52:12;16.52;;;8.93;;
70247;SDS011;57641;51.416;5.506;2022-11-15T07:54:38;20.13;;;9.68;;
70247;SDS011;57641;51.416;5.506;2022-11-15T07:57:04;16.70;;;8.52;;
70247;SDS011;57641;51.416;5.506;2022-11-15T07:59:34;13.10;;;7.35;;
70247;SDS011;57641;51.416;5.506;2022-11-15T08:02:00;17.35;;;7.75;;
70247;SDS011;57641;51.416;5.506;2022-11-15T08:04:25;14.48;;;7.80;;
70247;SDS011;57641;51.416;5.506;2022-11-15T08:06:51;13.30;;;7.40;;
70247;SDS011;57641;51.416;5.506;2022-11-15T08:09:16;15.55;;;8.05;;
70247;SDS011;57641;51.416;5.506;2022-11-15T08:11:41;15.20;;;8.70;;
70247;SDS011;57641;51.416;5.506;2022-11-15T08:14:07;15.10;;;8.02;;
70247;SDS011;57641;51.416;5.506;2022-11-15T08:16:32;16.80;;;7.90;;
70247;SDS011;57641;51.416;5.506;2022-11-15T08:18:58;14.68;;;7.43;;
70247;SDS011;57641;51.416;5.506;2022-11-15T08:21:23;14.00;;;7.25;;
70247;SDS011;57641;51.416;5.506;2022-11-15T08:23:52;12.75;;;6.78;;
70247;SDS011;57641;51.416;5.506;2022-11-15T08:26:18;10.20;;;6.20;;
70247;SDS011;57641;51.416;5.506;2022-11-15T08:28:44;11.43;;;6.55;;
70247;SDS011;57641;51.416;5.506;2022-11-15T08:31:13;10.48;;;6.85;;
70247;SDS011;57641;51.416;5.506;2022-11-15T08:33:46;14.32;;;6.10;;
70247;SDS011;57641;51.416;5.506;2022-11-15T08:36:21;11.75;;;6.45;;
70247;SDS011;57641;51.416;5.506;2022-11-15T08:38:49;8.65;;;5.22;;
70247;SDS011;57641;51.416;5.506;2022-11-15T08:41:21;10.95;;;5.93;;
70247;SDS011;57641;51.416;5.506;2022-11-15T08:43:55;9.68;;;5.63;;
70247;SDS011;57641;51.416;5.506;2022-11-15T08:46:21;10.07;;;5.57;;
70247;SDS011;57641;51.416;5.506;2022-11-15T08:48:56;10.32;;;5.70;;
70247;SDS011;57641;51.416;5.506;2022-11-15T08:51:22;9.00;;;5.10;;
70247;SDS011;57641;51.416;5.506;2022-11-15T08:53:47;8.15;;;4.72;;
70247;SDS011;57641;51.416;5.506;2022-11-15T08:56:14;9.00;;;4.65;;
70247;SDS011;57641;51.416;5.506;2022-11-15T08:58:40;8.82;;;5.18;;
70247;SDS011;57641;51.416;5.506;2022-11-15T09:01:13;6.63;;;4.10;;
70247;SDS011;57641;51.416;5.506;2022-11-15T09:03:41;6.65;;;4.18;;
70247;SDS011;57641;51.416;5.506;2022-11-15T09:06:06;7.32;;;4.05;;
70247;SDS011;57641;51.416;5.506;2022-11-15T09:08:32;8.13;;;4.40;;
70247;SDS011;57641;51.416;5.506;2022-11-15T09:10:57;7.30;;;4.20;;
70247;SDS011;57641;51.416;5.506;2022-11-15T09:13:26;6.90;;;4.05;;
70247;SDS011;57641;51.416;5.506;2022-11-15T09:15:52;8.80;;;4.57;;
70247;SDS011;57641;51.416;5.506;2022-11-15T09:18:18;11.38;;;5.40;;
70247;SDS011;57641;51.416;5.506;2022-11-15T09:20:44;6.72;;;4.22;;
70247;SDS011;57641;51.416;5.506;2022-11-15T09:23:09;9.13;;;5.00;;
70247;SDS011;57641;51.416;5.506;2022-11-15T09:25:35;7.60;;;4.28;;
70247;SDS011;57641;51.416;5.506;2022-11-15T09:28:00;7.97;;;4.25;;
70247;SDS011;57641;51.416;5.506;2022-11-15T09:30:30;5.45;;;3.25;;
70247;SDS011;57641;51.416;5.506;2022-11-15T09:32:56;5.57;;;3.55;;
70247;SDS011;57641;51.416;5.506;2022-11-15T09:35:21;5.00;;;2.53;;
70247;SDS011;57641;51.416;5.506;2022-11-15T09:37:46;6.63;;;2.72;;
70247;SDS011;57641;51.416;5.506;2022-11-15T09:40:13;5.82;;;2.30;;
70247;SDS011;57641;51.416;5.506;2022-11-15T09:48:46;5.00;;;1.95;;
70247;SDS011;57641;51.416;5.506;2022-11-15T09:54:19;2.38;;;1.30;;
70247;SDS011;57641;51.416;5.506;2022-11-15T09:56:46;2.38;;;1.23;;
70247;SDS011;57641;51.416;5.506;2022-11-15T10:05:07;2.95;;;1.30;;
70247;SDS011;57641;51.416;5.506;2022-11-15T10:07:47;4.13;;;1.25;;
70247;SDS011;57641;51.416;5.506;2022-11-15T10:10:39;2.30;;;1.02;;
70247;SDS011;57641;51.416;5.506;2022-11-15T10:13:20;2.13;;;1.30;;
70247;SDS011;57641;51.416;5.506;2022-11-15T10:15:49;3.85;;;1.30;;
70247;SDS011;57641;51.416;5.506;2022-11-15T10:20:48;2.53;;;1.35;;
70247;SDS011;57641;51.416;5.506;2022-11-15T10:23:19;7.85;;;2.25;;
70247;SDS011;57641;51.416;5.506;2022-11-15T10:25:47;2.28;;;1.23;;
70247;SDS011;57641;51.416;5.506;2022-11-15T10:30:45;2.25;;;1.23;;
70247;SDS011;57641;51.416;5.506;2022-11-15T10:33:16;5.30;;;1.88;;
70247;SDS011;57641;51.416;5.506;2022-11-15T10:35:42;5.63;;;1.50;;
70247;SDS011;57641;51.416;5.506;2022-11-15T10:38:11;3.13;;;1.40;;
70247;SDS011;57641;51.416;5.506;2022-11-15T10:40:37;5.18;;;1.45;;
70247;SDS011;57641;51.416;5.506;2022-11-15T10:43:17;3.90;;;1.63;;
70247;SDS011;57641;51.416;5.506;2022-11-15T10:45:44;2.92;;;1.15;;
70247;SDS011;57641;51.416;5.506;2022-11-15T10:50:37;3.33;;;1.25;;
70247;SDS011;57641;51.416;5.506;2022-11-15T10:53:04;4.28;;;1.30;;
70247;SDS011;57641;51.416;5.506;2022-11-15T10:55:47;3.03;;;1.40;;
70247;SDS011;57641;51.416;5.506;2022-11-15T10:58:34;5.10;;;1.25;;
70247;SDS011;57641;51.416;5.506;2022-11-15T11:03:38;2.20;;;1.20;;
70247;SDS011;57641;51.416;5.506;2022-11-15T11:06:09;3.65;;;1.02;;
70247;SDS011;57641;51.416;5.506;2022-11-15T11:08:40;6.20;;;1.10;;
70247;SDS011;57641;51.416;5.506;2022-11-15T11:11:19;2.55;;;1.00;;
70247;SDS011;57641;51.416;5.506;2022-11-15T11:13:45;3.65;;;1.33;;
70247;SDS011;57641;51.416;5.506;2022-11-15T11:18:43;3.53;;;1.23;;
70247;SDS011;57641;51.416;5.506;2022-11-15T11:21:20;5.70;;;1.33;;
70247;SDS011;57641;51.416;5.506;2022-11-15T11:24:08;1.70;;;1.20;;
70247;SDS011;57641;51.416;5.506;2022-11-15T11:26:49;3.45;;;1.00;;
70247;SDS011;57641;51.416;5.506;2022-11-15T11:32:05;2.38;;;0.85;;
70247;SDS011;57641;51.416;5.506;2022-11-15T11:42:48;2.33;;;0.82;;
70247;SDS011;57641;51.416;5.506;2022-11-15T11:50:32;1.90;;;0.93;;
70247;SDS011;57641;51.416;5.506;2022-11-15T11:53:09;1.42;;;0.80;;
70247;SDS011;57641;51.416;5.506;2022-11-15T11:55:43;2.40;;;0.90;;
70247;SDS011;57641;51.416;5.506;2022-11-15T11:58:14;2.10;;;1.05;;
70247;SDS011;57641;51.416;5.506;2022-11-15T12:01:28;3.03;;;1.30;;
70247;SDS011;57641;51.416;5.506;2022-11-15T12:03:41;3.20;;;1.10;;
70247;SDS011;57641;51.416;5.506;2022-11-15T12:08:53;3.90;;;1.00;;
70247;SDS011;57641;51.416;5.506;2022-11-15T12:14:30;4.30;;;1.05;;
70247;SDS011;57641;51.416;5.506;2022-11-15T12:17:00;2.95;;;1.10;;
70247;SDS011;57641;51.416;5.506;2022-11-15T12:19:26;2.97;;;0.95;;
70247;SDS011;57641;51.416;5.506;2022-11-15T12:21:59;2.45;;;1.00;;
70247;SDS011;57641;51.416;5.506;2022-11-15T12:24:38;2.30;;;1.25;;
70247;SDS011;57641;51.416;5.506;2022-11-15T12:27:15;4.07;;;1.15;;
70247;SDS011;57641;51.416;5.506;2022-11-15T12:30:02;2.38;;;0.80;;
70247;SDS011;57641;51.416;5.506;2022-11-15T12:32:35;4.60;;;0.93;;
70247;SDS011;57641;51.416;5.506;2022-11-15T12:35:03;2.20;;;0.70;;
70247;SDS011;57641;51.416;5.506;2022-11-15T12:37:48;2.00;;;0.80;;
70247;SDS011;57641;51.416;5.506;2022-11-15T12:40:22;2.30;;;0.73;;
70247;SDS011;57641;51.416;5.506;2022-11-15T12:45:26;1.77;;;0.88;;
70247;SDS011;57641;51.416;5.506;2022-11-15T12:51:00;4.85;;;1.15;;
70247;SDS011;57641;51.416;5.506;2022-11-15T12:53:33;1.65;;;0.93;;
70247;SDS011;57641;51.416;5.506;2022-11-15T12:58:39;2.97;;;1.08;;
70247;SDS011;57641;51.416;5.506;2022-11-15T13:01:06;3.78;;;1.17;;
70247;SDS011;57641;51.416;5.506;2022-11-15T13:03:32;3.10;;;0.75;;
70247;SDS011;57641;51.416;5.506;2022-11-15T13:05:59;3.25;;;0.75;;
70247;SDS011;57641;51.416;5.506;2022-11-15T13:08:40;3.65;;;1.23;;
70247;SDS011;57641;51.416;5.506;2022-11-15T13:19:58;2.40;;;0.70;;
70247;SDS011;57641;51.416;5.506;2022-11-15T13:22:24;2.40;;;0.70;;
70247;SDS011;57641;51.416;5.506;2022-11-15T13:27:45;1.83;;;0.70;;
70247;SDS011;57641;51.416;5.506;2022-11-15T13:30:18;2.17;;;0.90;;
70247;SDS011;57641;51.416;5.506;2022-11-15T13:32:45;5.88;;;1.23;;
70247;SDS011;57641;51.416;5.506;2022-11-15T13:35:22;1.58;;;1.00;;
70247;SDS011;57641;51.416;5.506;2022-11-15T13:37:50;3.97;;;0.80;;
70247;SDS011;57641;51.416;5.506;2022-11-15T13:40:27;2.30;;;0.80;;
70247;SDS011;57641;51.416;5.506;2022-11-15T13:42:59;3.15;;;0.80;;
70247;SDS011;57641;51.416;5.506;2022-11-15T13:45:38;3.33;;;0.75;;
70247;SDS011;57641;51.416;5.506;2022-11-15T13:48:04;3.38;;;0.90;;
70247;SDS011;57641;51.416;5.506;2022-11-15T13:50:32;2.60;;;0.75;;
70247;SDS011;57641;51.416;5.506;2022-11-15T13:53:02;3.50;;;0.80;;
70247;SDS011;57641;51.416;5.506;2022-11-15T13:55:29;3.40;;;0.68;;
70247;SDS011;57641;51.416;5.506;2022-11-15T13:57:58;1.02;;;0.60;;
70247;SDS011;57641;51.416;5.506;2022-11-15T14:03:18;2.53;;;0.70;;
70247;SDS011;57641;51.416;5.506;2022-11-15T14:06:08;1.95;;;0.75;;
70247;SDS011;57641;51.416;5.506;2022-11-15T14:08:37;1.30;;;0.60;;
70247;SDS011;57641;51.416;5.506;2022-11-15T14:11:16;1.55;;;0.70;;
70247;SDS011;57641;51.416;5.506;2022-11-15T14:19:00;3.38;;;0.77;;
70247;SDS011;57641;51.416;5.506;2022-11-15T14:21:26;6.32;;;0.90;;
70247;SDS011;57641;51.416;5.506;2022-11-15T14:23:52;4.38;;;0.85;;
70247;SDS011;57641;51.416;5.506;2022-11-15T14:31:18;3.37;;;0.70;;
70247;SDS011;57641;51.416;5.506;2022-11-15T14:33:46;3.50;;;0.95;;
70247;SDS011;57641;51.416;5.506;2022-11-15T14:36:13;3.58;;;1.00;;
70247;SDS011;57641;51.416;5.506;2022-11-15T14:38:46;2.10;;;1.25;;
70247;SDS011;57641;51.416;5.506;2022-11-15T14:41:23;2.17;;;1.08;;
70247;SDS011;57641;51.416;5.506;2022-11-15T14:43:51;1.23;;;0.70;;
70247;SDS011;57641;51.416;5.506;2022-11-15T14:46:18;4.72;;;1.25;;
70247;SDS011;57641;51.416;5.506;2022-11-15T14:48:44;5.28;;;1.00;;
70247;SDS011;57641;51.416;5.506;2022-11-15T14:51:11;2.83;;;0.90;;
70247;SDS011;57641;51.416;5.506;2022-11-15T14:53:41;4.53;;;0.73;;
70247;SDS011;57641;51.416;5.506;2022-11-15T14:56:08;3.88;;;0.88;;
70247;SDS011;57641;51.416;5.506;2022-11-15T14:58:33;2.88;;;0.93;;
70247;SDS011;57641;51.416;5.506;2022-11-15T15:00:59;2.38;;;0.82;;
70247;SDS011;57641;51.416;5.506;2022-11-15T15:03:24;5.03;;;1.10;;
70247;SDS011;57641;51.416;5.506;2022-11-15T15:05:50;4.90;;;1.20;;
70247;SDS011;57641;51.416;5.506;2022-11-15T15:08:15;2.75;;;1.30;;
70247;SDS011;57641;51.416;5.506;2022-11-15T15:10:41;6.63;;;1.65;;
70247;SDS011;57641;51.416;5.506;2022-11-15T15:15:48;3.08;;;1.13;;
70247;SDS011;57641;51.416;5.506;2022-11-15T15:18:15;2.70;;;1.10;;
70247;SDS011;57641;51.416;5.506;2022-11-15T15:20:41;4.55;;;1.40;;
70247;SDS011;57641;51.416;5.506;2022-11-15T15:23:13;3.35;;;1.20;;
70247;SDS011;57641;51.416;5.506;2022-11-15T15:25:40;2.47;;;1.02;;
70247;SDS011;57641;51.416;5.506;2022-11-15T15:28:10;1.90;;;1.00;;
70247;SDS011;57641;51.416;5.506;2022-11-15T15:30:35;4.97;;;1.40;;
70247;SDS011;57641;51.416;5.506;2022-11-15T15:33:00;2.08;;;1.23;;
70247;SDS011;57641;51.416;5.506;2022-11-15T15:35:28;2.60;;;1.10;;
70247;SDS011;57641;51.416;5.506;2022-11-15T15:37:56;5.82;;;1.48;;
70247;SDS011;57641;51.416;5.506;2022-11-15T15:40:22;1.80;;;1.10;;
70247;SDS011;57641;51.416;5.506;2022-11-15T15:42:49;3.13;;;1.50;;
70247;SDS011;57641;51.416;5.506;2022-11-15T15:45:18;3.78;;;1.30;;
70247;SDS011;57641;51.416;5.506;2022-11-15T15:47:44;2.35;;;1.20;;
70247;SDS011;57641;51.416;5.506;2022-11-15T15:50:21;4.68;;;1.50;;
70247;SDS011;57641;51.416;5.506;2022-11-15T15:52:47;4.65;;;1.23;;
70247;SDS011;57641;51.416;5.506;2022-11-15T15:55:14;4.40;;;1.27;;
70247;SDS011;57641;51.416;5.506;2022-11-15T15:57:39;2.60;;;1.30;;
70247;SDS011;57641;51.416;5.506;2022-11-15T16:00:05;2.13;;;1.42;;
70247;SDS011;57641;51.416;5.506;2022-11-15T16:02:31;7.25;;;1.42;;
70247;SDS011;57641;51.416;5.506;2022-11-15T16:04:57;2.70;;;1.30;;
70247;SDS011;57641;51.416;5.506;2022-11-15T16:07:25;2.63;;;1.30;;
70247;SDS011;57641;51.416;5.506;2022-11-15T16:09:56;1.67;;;1.33;;
70247;SDS011;57641;51.416;5.506;2022-11-15T16:12:25;2.30;;;1.20;;
70247;SDS011;57641;51.416;5.506;2022-11-15T16:14:58;1.50;;;1.10;;
70247;SDS011;57641;51.416;5.506;2022-11-15T16:17:28;4.65;;;1.60;;
70247;SDS011;57641;51.416;5.506;2022-11-15T16:19:58;2.55;;;1.73;;
70247;SDS011;57641;51.416;5.506;2022-11-15T16:22:23;3.20;;;1.70;;
70247;SDS011;57641;51.416;5.506;2022-11-15T16:24:48;3.85;;;1.50;;
70247;SDS011;57641;51.416;5.506;2022-11-15T16:27:15;4.85;;;1.67;;
70247;SDS011;57641;51.416;5.506;2022-11-15T16:29:42;5.18;;;1.85;;
70247;SDS011;57641;51.416;5.506;2022-11-15T16:32:08;4.32;;;1.90;;
70247;SDS011;57641;51.416;5.506;2022-11-15T16:34:39;3.10;;;2.20;;
70247;SDS011;57641;51.416;5.506;2022-11-15T16:37:04;3.55;;;1.90;;
70247;SDS011;57641;51.416;5.506;2022-11-15T16:39:31;5.80;;;1.83;;
70247;SDS011;57641;51.416;5.506;2022-11-15T16:41:57;3.25;;;2.00;;